Azle, TX

3:01 PM CST on December 05, 2016 (GMT -0600)
Ash Creek Estates | | Change Station

Elev 710 ft 32.91 °N, 97.59 °W | Updated 16 seconds ago

Light Rain
Light Rain
49.7 °F
Feels Like 50 °F
N
0.0
Wind Variable Wind from South
Gusts 2.0 mph

Today
High -- | Low -- °F
--% Chance of Precip.
Yesterday
High -- | Low -- °F
Precip. -- in
Pressure 29.71 in
Visibility 10.0 miles
Clouds Mostly Cloudy 1700 ft
Mostly Cloudy 3200 ft
Overcast 6500 ft
Windchill 50 °F
Dew Point 47 °F
Humidity 89%
Rainfall 0.02 in
Snow Depth Not available.
7:18 AM 5:23 PM
Waxing Crescent, 34% visible
METAR KNFW 052052Z 16003KT 10SM -RA BKN017 BKN032 OVC065 10/08 A2975 RMK AO2 SLP061 P0002 60002 T01000078 56033 $
Pressure 29.71 in
Visibility 10.0 miles
Clouds Mostly Cloudy 1700 ft
Mostly Cloudy 3200 ft
Overcast 6500 ft
Windchill 50 °F
Dew Point 47 °F
Humidity 89%
Rainfall 0.02 in
Snow Depth Not available.
7:18 AM 5:23 PM
Waxing Crescent, 34% visible
METAR KNFW 052052Z 16003KT 10SM -RA BKN017 BKN032 OVC065 10/08 A2975 RMK AO2 SLP061 P0002 60002 T01000078 56033 $

10-Day Weather Forecast

Almanac

Astronomy

Dec. 05, 2016 Rise Set
Actual Time
Civil Twilight
Nautical Twilight
Astronomical Twilight
Moon
Length of Visible Light
Length of Day
Tomorrow will be .
, % of the Moon is Illuminated

Today's Extremes

State Highs State Lows

Community

WunderPhotos

Upload Photos

1,955,863 photos uploaded!

WunderBlog® & News

Nearby

Air Quality

  Air Quality AQ Index Pollutant
Not available.

Snow Depth

Station Depth Elevation

Earthquake Activity

City Distance Mag. Time & Date
Minimum magnitude displayed is 2.5.

Coastal Water Temperatures

Place Temperature

Stations

Nearby Weather Stations

Station Location Temp. Windchill Dew Point Humidity Wind Precip. Elev Updated Type
                   

Watches & Warnings

There are currently no watches in effect.